sensor_id;sensor_type;location;lat;lon;timestamp;pressure;altitude;pressure_sealevel;temperature;humidity
22755;BME280;11544;42.020;23.094;2024-02-21T00:00:27;97872.13;;;6.56;75.05
22755;BME280;11544;42.020;23.094;2024-02-21T00:02:54;97877.28;;;6.56;74.11
22755;BME280;11544;42.020;23.094;2024-02-21T00:05:25;97881.25;;;6.95;73.20
22755;BME280;11544;42.020;23.094;2024-02-21T00:07:52;97870.97;;;6.86;73.14
22755;BME280;11544;42.020;23.094;2024-02-21T00:10:19;97863.38;;;6.71;74.83
22755;BME280;11544;42.020;23.094;2024-02-21T00:12:47;97872.16;;;6.51;73.79
22755;BME280;11544;42.020;23.094;2024-02-21T00:15:13;97869.75;;;6.30;76.01
22755;BME280;11544;42.020;23.094;2024-02-21T00:17:40;97867.75;;;6.63;75.28
22755;BME280;11544;42.020;23.094;2024-02-21T00:20:07;97871.78;;;6.91;74.27
22755;BME280;11544;42.020;23.094;2024-02-21T00:22:34;97867.94;;;6.41;75.28
22755;BME280;11544;42.020;23.094;2024-02-21T00:25:02;97869.66;;;6.38;75.47
22755;BME280;11544;42.020;23.094;2024-02-21T00:27:28;97861.00;;;6.40;75.09
22755;BME280;11544;42.020;23.094;2024-02-21T00:29:55;97854.16;;;6.36;76.42
22755;BME280;11544;42.020;23.094;2024-02-21T00:32:22;97859.19;;;6.54;75.86
22755;BME280;11544;42.020;23.094;2024-02-21T00:34:49;97860.94;;;6.49;75.34
22755;BME280;11544;42.020;23.094;2024-02-21T00:37:16;97857.38;;;6.64;74.23
22755;BME280;11544;42.020;23.094;2024-02-21T00:39:42;97851.13;;;6.82;72.70
22755;BME280;11544;42.020;23.094;2024-02-21T00:42:09;97857.34;;;6.66;73.40
22755;BME280;11544;42.020;23.094;2024-02-21T00:44:36;97857.34;;;6.69;73.65
22755;BME280;11544;42.020;23.094;2024-02-21T00:47:03;97854.56;;;6.83;72.66
22755;BME280;11544;42.020;23.094;2024-02-21T00:49:30;97857.28;;;6.72;72.61
22755;BME280;11544;42.020;23.094;2024-02-21T00:51:57;97857.03;;;6.98;74.00
22755;BME280;11544;42.020;23.094;2024-02-21T00:54:23;97860.38;;;7.08;71.99
22755;BME280;11544;42.020;23.094;2024-02-21T00:56:52;97862.91;;;7.11;72.93
22755;BME280;11544;42.020;23.094;2024-02-21T00:59:19;97861.03;;;7.25;72.34
22755;BME280;11544;42.020;23.094;2024-02-21T01:01:46;97855.94;;;7.19;72.83
22755;BME280;11544;42.020;23.094;2024-02-21T01:04:13;97853.38;;;7.14;72.58
22755;BME280;11544;42.020;23.094;2024-02-21T01:06:40;97855.47;;;6.83;72.44
22755;BME280;11544;42.020;23.094;2024-02-21T01:09:13;97859.63;;;6.98;72.65
22755;BME280;11544;42.020;23.094;2024-02-21T01:11:40;97849.47;;;6.75;72.76
22755;BME280;11544;42.020;23.094;2024-02-21T01:14:07;97849.66;;;6.58;75.15
22755;BME280;11544;42.020;23.094;2024-02-21T01:16:34;97845.81;;;6.94;74.78
22755;BME280;11544;42.020;23.094;2024-02-21T01:19:01;97847.09;;;6.52;76.61
22755;BME280;11544;42.020;23.094;2024-02-21T01:21:28;97846.84;;;6.81;77.77
22755;BME280;11544;42.020;23.094;2024-02-21T01:23:55;97841.97;;;6.50;78.79
22755;BME280;11544;42.020;23.094;2024-02-21T01:26:22;97846.03;;;6.76;78.42
22755;BME280;11544;42.020;23.094;2024-02-21T01:28:49;97845.94;;;6.84;78.65
22755;BME280;11544;42.020;23.094;2024-02-21T01:31:15;97835.63;;;6.79;78.84
22755;BME280;11544;42.020;23.094;2024-02-21T01:33:42;97835.38;;;7.02;79.58
22755;BME280;11544;42.020;23.094;2024-02-21T01:36:09;97838.31;;;6.70;83.00
22755;BME280;11544;42.020;23.094;2024-02-21T01:38:36;97832.00;;;6.94;81.72
22755;BME280;11544;42.020;23.094;2024-02-21T01:41:03;97834.72;;;6.80;83.49
22755;BME280;11544;42.020;23.094;2024-02-21T01:43:30;97824.28;;;6.89;80.82
22755;BME280;11544;42.020;23.094;2024-02-21T01:45:57;97825.06;;;6.97;78.73
22755;BME280;11544;42.020;23.094;2024-02-21T01:48:25;97822.63;;;6.82;79.46
22755;BME280;11544;42.020;23.094;2024-02-21T01:50:54;97827.94;;;6.71;78.10
22755;BME280;11544;42.020;23.094;2024-02-21T01:53:23;97819.22;;;6.77;78.65
22755;BME280;11544;42.020;23.094;2024-02-21T01:55:51;97827.63;;;7.00;78.41
22755;BME280;11544;42.020;23.094;2024-02-21T01:58:18;97814.03;;;6.78;80.61
22755;BME280;11544;42.020;23.094;2024-02-21T02:00:47;97826.66;;;7.06;82.97
22755;BME280;11544;42.020;23.094;2024-02-21T02:03:14;97822.44;;;7.00;83.63
22755;BME280;11544;42.020;23.094;2024-02-21T02:05:44;97821.81;;;6.78;85.88
22755;BME280;11544;42.020;23.094;2024-02-21T02:08:14;97823.78;;;6.55;89.09
22755;BME280;11544;42.020;23.094;2024-02-21T02:10:42;97811.44;;;6.78;90.58
22755;BME280;11544;42.020;23.094;2024-02-21T02:13:09;97815.00;;;6.70;90.21
22755;BME280;11544;42.020;23.094;2024-02-21T02:15:44;97825.84;;;7.04;89.46
22755;BME280;11544;42.020;23.094;2024-02-21T02:18:14;97814.50;;;7.13;88.32
22755;BME280;11544;42.020;23.094;2024-02-21T02:20:45;97809.00;;;6.63;90.10
22755;BME280;11544;42.020;23.094;2024-02-21T02:23:26;97807.06;;;6.82;90.04
22755;BME280;11544;42.020;23.094;2024-02-21T02:25:54;97806.50;;;6.57;91.08
22755;BME280;11544;42.020;23.094;2024-02-21T02:28:22;97812.47;;;7.38;86.58
22755;BME280;11544;42.020;23.094;2024-02-21T02:30:49;97809.34;;;7.10;87.85
22755;BME280;11544;42.020;23.094;2024-02-21T02:33:16;97812.69;;;7.18;86.92
22755;BME280;11544;42.020;23.094;2024-02-21T02:35:46;97805.28;;;6.90;89.40
22755;BME280;11544;42.020;23.094;2024-02-21T02:38:13;97805.63;;;7.32;88.50
22755;BME280;11544;42.020;23.094;2024-02-21T02:40:41;97798.44;;;6.82;90.54
22755;BME280;11544;42.020;23.094;2024-02-21T02:43:08;97802.03;;;6.68;92.68
22755;BME280;11544;42.020;23.094;2024-02-21T02:45:35;97818.22;;;6.90;92.07
22755;BME280;11544;42.020;23.094;2024-02-21T02:48:02;97805.44;;;7.46;86.93
22755;BME280;11544;42.020;23.094;2024-02-21T02:50:30;97806.81;;;7.05;85.93
22755;BME280;11544;42.020;23.094;2024-02-21T02:52:57;97803.16;;;7.23;86.48
22755;BME280;11544;42.020;23.094;2024-02-21T02:55:24;97800.56;;;7.23;85.66
22755;BME280;11544;42.020;23.094;2024-02-21T02:57:53;97797.97;;;7.21;86.39
22755;BME280;11544;42.020;23.094;2024-02-21T03:00:20;97800.75;;;6.23;90.05
22755;BME280;11544;42.020;23.094;2024-02-21T03:02:49;97801.69;;;7.00;88.91
22755;BME280;11544;42.020;23.094;2024-02-21T03:05:18;97812.84;;;7.06;88.63
22755;BME280;11544;42.020;23.094;2024-02-21T03:07:46;97802.59;;;6.98;87.60
22755;BME280;11544;42.020;23.094;2024-02-21T03:10:14;97805.75;;;7.23;85.26
22755;BME280;11544;42.020;23.094;2024-02-21T03:12:44;97813.75;;;7.05;86.86
22755;BME280;11544;42.020;23.094;2024-02-21T03:15:11;97803.72;;;7.47;83.93
22755;BME280;11544;42.020;23.094;2024-02-21T03:17:38;97800.84;;;7.00;84.76
22755;BME280;11544;42.020;23.094;2024-02-21T03:20:06;97805.91;;;7.09;85.24
22755;BME280;11544;42.020;23.094;2024-02-21T03:22:39;97815.13;;;6.57;90.67
22755;BME280;11544;42.020;23.094;2024-02-21T03:25:07;97816.38;;;7.02;88.96
22755;BME280;11544;42.020;23.094;2024-02-21T03:27:34;97812.84;;;7.07;87.29
22755;BME280;11544;42.020;23.094;2024-02-21T03:30:01;97820.81;;;6.90;88.72
22755;BME280;11544;42.020;23.094;2024-02-21T03:32:28;97816.72;;;6.71;90.55
22755;BME280;11544;42.020;23.094;2024-02-21T03:34:56;97810.03;;;6.47;93.87
22755;BME280;11544;42.020;23.094;2024-02-21T03:37:23;97823.09;;;6.33;96.01
22755;BME280;11544;42.020;23.094;2024-02-21T03:39:50;97819.69;;;6.29;98.40
22755;BME280;11544;42.020;23.094;2024-02-21T03:42:17;97818.81;;;6.33;99.19
22755;BME280;11544;42.020;23.094;2024-02-21T03:44:44;97825.84;;;6.18;100.00
22755;BME280;11544;42.020;23.094;2024-02-21T03:47:11;97832.00;;;6.03;100.00
22755;BME280;11544;42.020;23.094;2024-02-21T03:49:38;97833.78;;;5.85;100.00
22755;BME280;11544;42.020;23.094;2024-02-21T03:52:06;97836.28;;;6.04;100.00
22755;BME280;11544;42.020;23.094;2024-02-21T03:54:33;97843.13;;;6.12;100.00
22755;BME280;11544;42.020;23.094;2024-02-21T03:56:59;97836.16;;;6.24;100.00
22755;BME280;11544;42.020;23.094;2024-02-21T03:59:26;97841.22;;;6.34;100.00
22755;BME280;11544;42.020;23.094;2024-02-21T04:01:53;97838.59;;;6.38;100.00
22755;BME280;11544;42.020;23.094;2024-02-21T04:04:20;97836.19;;;6.19;100.00
22755;BME280;11544;42.020;23.094;2024-02-21T04:06:48;97842.38;;;5.95;100.00
22755;BME280;11544;42.020;23.094;2024-02-21T04:09:15;97842.88;;;6.42;99.76
22755;BME280;11544;42.020;23.094;2024-02-21T04:11:43;97835.25;;;6.23;100.00
22755;BME280;11544;42.020;23.094;2024-02-21T04:14:10;97844.13;;;5.94;100.00
22755;BME280;11544;42.020;23.094;2024-02-21T04:16:38;97840.69;;;5.86;100.00
22755;BME280;11544;42.020;23.094;2024-02-21T04:19:06;97840.88;;;5.56;100.00
22755;BME280;11544;42.020;23.094;2024-02-21T04:21:34;97839.91;;;5.77;100.00
22755;BME280;11544;42.020;23.094;2024-02-21T04:24:01;97834.53;;;6.09;100.00
22755;BME280;11544;42.020;23.094;2024-02-21T04:26:30;97833.63;;;6.11;100.00
22755;BME280;11544;42.020;23.094;2024-02-21T04:28:57;97833.75;;;5.91;100.00
22755;BME280;11544;42.020;23.094;2024-02-21T04:31:24;97832.00;;;6.01;100.00
22755;BME280;11544;42.020;23.094;2024-02-21T04:33:51;97838.09;;;5.89;100.00
22755;BME280;11544;42.020;23.094;2024-02-21T04:36:18;97838.94;;;5.90;100.00
22755;BME280;11544;42.020;23.094;2024-02-21T04:38:45;97842.38;;;5.98;100.00
22755;BME280;11544;42.020;23.094;2024-02-21T04:41:12;97842.34;;;6.03;100.00
22755;BME280;11544;42.020;23.094;2024-02-21T04:43:39;97845.66;;;6.22;100.00
22755;BME280;11544;42.020;23.094;2024-02-21T04:46:06;97838.88;;;6.02;100.00
22755;BME280;11544;42.020;23.094;2024-02-21T04:48:33;97840.72;;;5.79;100.00
22755;BME280;11544;42.020;23.094;2024-02-21T04:50:59;97854.47;;;5.90;100.00
22755;BME280;11544;42.020;23.094;2024-02-21T04:53:26;97851.94;;;5.81;100.00
22755;BME280;11544;42.020;23.094;2024-02-21T04:55:53;97848.66;;;5.56;100.00
22755;BME280;11544;42.020;23.094;2024-02-21T04:58:20;97844.06;;;6.04;100.00
22755;BME280;11544;42.020;23.094;2024-02-21T05:00:47;97843.25;;;5.94;100.00
22755;BME280;11544;42.020;23.094;2024-02-21T05:03:14;97840.56;;;6.09;100.00
22755;BME280;11544;42.020;23.094;2024-02-21T05:05:41;97847.53;;;6.03;100.00
22755;BME280;11544;42.020;23.094;2024-02-21T05:08:09;97847.78;;;7.48;100.00
22755;BME280;11544;42.020;23.094;2024-02-21T05:10:36;97847.75;;;6.75;100.00
22755;BME280;11544;42.020;23.094;2024-02-21T05:13:03;97846.00;;;5.63;100.00
22755;BME280;11544;42.020;23.094;2024-02-21T05:15:31;97852.13;;;5.48;100.00
22755;BME280;11544;42.020;23.094;2024-02-21T05:17:58;97852.81;;;5.78;100.00
22755;BME280;11544;42.020;23.094;2024-02-21T05:20:25;97849.53;;;5.50;100.00
22755;BME280;11544;42.020;23.094;2024-02-21T05:22:52;97861.66;;;5.37;100.00
22755;BME280;11544;42.020;23.094;2024-02-21T05:25:19;97851.91;;;5.85;100.00
22755;BME280;11544;42.020;23.094;2024-02-21T05:27:46;97857.31;;;5.44;100.00
22755;BME280;11544;42.020;23.094;2024-02-21T05:30:12;97861.41;;;5.86;100.00
22755;BME280;11544;42.020;23.094;2024-02-21T05:32:39;97859.69;;;5.82;100.00
22755;BME280;11544;42.020;23.094;2024-02-21T05:35:07;97862.34;;;5.67;100.00
22755;BME280;11544;42.020;23.094;2024-02-21T05:37:34;97869.44;;;5.26;100.00
22755;BME280;11544;42.020;23.094;2024-02-21T05:40:01;97871.13;;;5.34;100.00
22755;BME280;11544;42.020;23.094;2024-02-21T05:42:27;97868.56;;;5.37;100.00
22755;BME280;11544;42.020;23.094;2024-02-21T05:44:54;97866.72;;;5.60;100.00
22755;BME280;11544;42.020;23.094;2024-02-21T05:47:21;97872.81;;;5.45;100.00
22755;BME280;11544;42.020;23.094;2024-02-21T05:49:48;97868.56;;;5.37;100.00
22755;BME280;11544;42.020;23.094;2024-02-21T05:52:15;97877.94;;;5.58;100.00
22755;BME280;11544;42.020;23.094;2024-02-21T05:54:42;97880.38;;;5.85;100.00
22755;BME280;11544;42.020;23.094;2024-02-21T05:57:09;97885.53;;;5.85;100.00
22755;BME280;11544;42.020;23.094;2024-02-21T05:59:38;97882.88;;;6.04;100.00
22755;BME280;11544;42.020;23.094;2024-02-21T06:02:06;97879.50;;;6.97;96.21
22755;BME280;11544;42.020;23.094;2024-02-21T06:04:34;97892.47;;;5.80;99.84
22755;BME280;11544;42.020;23.094;2024-02-21T06:07:01;97887.13;;;6.17;99.87
22755;BME280;11544;42.020;23.094;2024-02-21T06:09:28;97889.63;;;6.23;100.00
22755;BME280;11544;42.020;23.094;2024-02-21T06:11:55;97887.97;;;6.18;99.68
22755;BME280;11544;42.020;23.094;2024-02-21T06:14:22;97893.00;;;6.34;98.58
22755;BME280;11544;42.020;23.094;2024-02-21T06:16:49;97896.16;;;5.30;100.00
22755;BME280;11544;42.020;23.094;2024-02-21T06:19:16;97898.41;;;6.05;100.00
22755;BME280;11544;42.020;23.094;2024-02-21T06:21:43;97896.31;;;6.55;98.85
22755;BME280;11544;42.020;23.094;2024-02-21T06:24:11;97899.00;;;6.41;96.94
22755;BME280;11544;42.020;23.094;2024-02-21T06:26:40;97900.78;;;6.33;96.54
22755;BME280;11544;42.020;23.094;2024-02-21T06:29:07;97904.22;;;6.35;96.80
22755;BME280;11544;42.020;23.094;2024-02-21T06:31:35;97903.38;;;6.36;95.37
22755;BME280;11544;42.020;23.094;2024-02-21T06:34:02;97911.25;;;6.18;96.25
22755;BME280;11544;42.020;23.094;2024-02-21T06:36:29;97914.72;;;6.18;95.09
22755;BME280;11544;42.020;23.094;2024-02-21T06:38:56;97914.47;;;6.49;95.80
22755;BME280;11544;42.020;23.094;2024-02-21T06:41:23;97902.06;;;6.85;92.79
22755;BME280;11544;42.020;23.094;2024-02-21T06:43:50;97898.78;;;6.69;92.09
22755;BME280;11544;42.020;23.094;2024-02-21T06:46:25;97910.91;;;6.67;93.07
22755;BME280;11544;42.020;23.094;2024-02-21T06:48:52;97908.16;;;6.84;92.79
22755;BME280;11544;42.020;23.094;2024-02-21T06:51:19;97915.03;;;6.86;90.51
22755;BME280;11544;42.020;23.094;2024-02-21T06:53:46;97921.94;;;6.84;90.61
22755;BME280;11544;42.020;23.094;2024-02-21T06:56:13;97913.19;;;6.97;90.40
22755;BME280;11544;42.020;23.094;2024-02-21T06:58:40;97916.69;;;6.93;90.18
22755;BME280;11544;42.020;23.094;2024-02-21T07:01:08;97913.72;;;7.27;89.08
22755;BME280;11544;42.020;23.094;2024-02-21T07:03:35;97916.16;;;7.42;87.76
22755;BME280;11544;42.020;23.094;2024-02-21T07:06:02;97922.44;;;7.23;88.11
22755;BME280;11544;42.020;23.094;2024-02-21T07:08:29;97917.03;;;7.41;85.51
22755;BME280;11544;42.020;23.094;2024-02-21T07:10:56;97917.16;;;7.32;87.34
22755;BME280;11544;42.020;23.094;2024-02-21T07:13:23;97913.63;;;7.39;89.37
22755;BME280;11544;42.020;23.094;2024-02-21T07:15:50;97922.44;;;7.21;97.00
22755;BME280;11544;42.020;23.094;2024-02-21T07:18:18;97923.94;;;7.42;98.67
22755;BME280;11544;42.020;23.094;2024-02-21T07:20:45;97930.22;;;7.21;100.00
22755;BME280;11544;42.020;23.094;2024-02-21T07:23:12;97929.13;;;7.42;100.00
22755;BME280;11544;42.020;23.094;2024-02-21T07:25:39;97930.84;;;7.43;100.00
22755;BME280;11544;42.020;23.094;2024-02-21T07:28:06;97931.94;;;7.24;100.00
22755;BME280;11544;42.020;23.094;2024-02-21T07:30:33;97930.72;;;7.54;100.00
22755;BME280;11544;42.020;23.094;2024-02-21T07:33:00;97927.75;;;7.85;100.00
22755;BME280;11544;42.020;23.094;2024-02-21T07:35:27;97932.78;;;7.26;100.00
22755;BME280;11544;42.020;23.094;2024-02-21T07:37:54;97926.69;;;8.01;100.00
22755;BME280;11544;42.020;23.094;2024-02-21T07:40:21;97928.72;;;8.38;94.44
22755;BME280;11544;42.020;23.094;2024-02-21T07:42:48;97926.38;;;8.23;94.23
22755;BME280;11544;42.020;23.094;2024-02-21T07:45:17;97927.88;;;7.77;97.16
22755;BME280;11544;42.020;23.094;2024-02-21T07:47:50;97922.84;;;7.60;98.10
22755;BME280;11544;42.020;23.094;2024-02-21T07:50:17;97923.59;;;8.34;96.82
22755;BME280;11544;42.020;23.094;2024-02-21T07:52:44;97924.75;;;8.16;95.95
22755;BME280;11544;42.020;23.094;2024-02-21T07:55:11;97917.59;;;8.30;95.40
22755;BME280;11544;42.020;23.094;2024-02-21T07:57:38;97914.09;;;8.34;95.06
22755;BME280;11544;42.020;23.094;2024-02-21T08:00:06;97918.81;;;8.65;94.19
22755;BME280;11544;42.020;23.094;2024-02-21T08:02:36;97910.75;;;8.80;90.60
22755;BME280;11544;42.020;23.094;2024-02-21T08:05:03;97905.00;;;9.11;88.21
22755;BME280;11544;42.020;23.094;2024-02-21T08:07:30;97902.22;;;9.65;84.13
22755;BME280;11544;42.020;23.094;2024-02-21T08:09:57;97902.72;;;8.94;88.28
22755;BME280;11544;42.020;23.094;2024-02-21T08:12:24;97904.91;;;9.16;89.36
22755;BME280;11544;42.020;23.094;2024-02-21T08:14:51;97901.38;;;9.20;87.26
22755;BME280;11544;42.020;23.094;2024-02-21T08:17:18;97907.00;;;9.85;85.70
22755;BME280;11544;42.020;23.094;2024-02-21T08:19:45;97897.63;;;10.15;80.76
22755;BME280;11544;42.020;23.094;2024-02-21T08:22:11;97892.91;;;9.94;84.64
22755;BME280;11544;42.020;23.094;2024-02-21T08:24:39;97905.91;;;9.95;81.29
22755;BME280;11544;42.020;23.094;2024-02-21T08:27:05;97890.50;;;10.95;79.28
22755;BME280;11544;42.020;23.094;2024-02-21T08:29:32;97887.59;;;10.75;76.15
22755;BME280;11544;42.020;23.094;2024-02-21T08:31:59;97884.34;;;11.31;74.40
22755;BME280;11544;42.020;23.094;2024-02-21T08:34:26;97875.78;;;11.86;68.15
22755;BME280;11544;42.020;23.094;2024-02-21T08:36:55;97871.69;;;11.78;69.04
22755;BME280;11544;42.020;23.094;2024-02-21T08:39:22;97881.38;;;12.04;66.68
22755;BME280;11544;42.020;23.094;2024-02-21T08:41:49;97876.59;;;11.59;68.54
22755;BME280;11544;42.020;23.094;2024-02-21T08:44:23;97884.06;;;12.02;66.73
22755;BME280;11544;42.020;23.094;2024-02-21T08:46:54;97871.72;;;12.07;65.31
22755;BME280;11544;42.020;23.094;2024-02-21T08:49:21;97864.03;;;12.01;64.48
22755;BME280;11544;42.020;23.094;2024-02-21T08:51:48;97883.56;;;11.60;68.21
22755;BME280;11544;42.020;23.094;2024-02-21T08:54:15;97864.97;;;12.55;63.56
22755;BME280;11544;42.020;23.094;2024-02-21T08:56:43;97869.78;;;12.67;64.99
22755;BME280;11544;42.020;23.094;2024-02-21T08:59:10;97861.50;;;13.06;62.09
22755;BME280;11544;42.020;23.094;2024-02-21T09:01:37;97865.41;;;12.68;63.53
22755;BME280;11544;42.020;23.094;2024-02-21T09:04:05;97870.94;;;12.04;64.18
22755;BME280;11544;42.020;23.094;2024-02-21T09:06:32;97860.28;;;12.65;62.13
22755;BME280;11544;42.020;23.094;2024-02-21T09:09:00;97852.38;;;12.91;59.93
22755;BME280;11544;42.020;23.094;2024-02-21T09:11:27;97851.03;;;13.55;58.99
22755;BME280;11544;42.020;23.094;2024-02-21T09:13:55;97853.47;;;13.36;60.66
22755;BME280;11544;42.020;23.094;2024-02-21T09:16:22;97859.69;;;13.57;55.92
22755;BME280;11544;42.020;23.094;2024-02-21T09:18:50;97855.91;;;13.41;57.28
22755;BME280;11544;42.020;23.094;2024-02-21T09:21:18;97860.16;;;12.95;58.80
22755;BME280;11544;42.020;23.094;2024-02-21T09:23:45;97857.00;;;13.59;58.02
22755;BME280;11544;42.020;23.094;2024-02-21T09:26:12;97858.72;;;13.60;59.28
22755;BME280;11544;42.020;23.094;2024-02-21T09:28:45;97857.09;;;13.07;61.25
22755;BME280;11544;42.020;23.094;2024-02-21T09:31:12;97856.38;;;12.77;61.11
22755;BME280;11544;42.020;23.094;2024-02-21T09:33:39;97858.16;;;12.76;64.50
22755;BME280;11544;42.020;23.094;2024-02-21T09:36:06;97859.00;;;13.27;62.07
22755;BME280;11544;42.020;23.094;2024-02-21T09:38:33;97854.91;;;12.95;62.52
22755;BME280;11544;42.020;23.094;2024-02-21T09:41:14;97853.25;;;13.17;61.96
22755;BME280;11544;42.020;23.094;2024-02-21T09:43:45;97858.19;;;13.50;60.33
22755;BME280;11544;42.020;23.094;2024-02-21T09:46:17;97852.94;;;13.73;58.08
22755;BME280;11544;42.020;23.094;2024-02-21T09:51:43;97855.03;;;13.42;56.31
22755;BME280;11544;42.020;23.094;2024-02-21T09:54:11;97851.19;;;13.02;56.94
22755;BME280;11544;42.020;23.094;2024-02-21T09:56:45;97849.34;;;13.04;58.80
22755;BME280;11544;42.020;23.094;2024-02-21T09:59:16;97843.97;;;12.30;57.80
22755;BME280;11544;42.020;23.094;2024-02-21T10:01:43;97836.53;;;12.71;56.52
22755;BME280;11544;42.020;23.094;2024-02-21T10:04:14;97837.94;;;13.55;55.06
22755;BME280;11544;42.020;23.094;2024-02-21T10:06:41;97831.84;;;13.54;53.51
22755;BME280;11544;42.020;23.094;2024-02-21T10:09:08;97836.69;;;12.40;54.75
22755;BME280;11544;42.020;23.094;2024-02-21T10:11:35;97828.31;;;12.82;53.40
22755;BME280;11544;42.020;23.094;2024-02-21T10:16:32;97816.91;;;13.08;51.13
22755;BME280;11544;42.020;23.094;2024-02-21T10:19:00;97816.06;;;12.57;52.22
22755;BME280;11544;42.020;23.094;2024-02-21T10:21:27;97810.72;;;13.10;51.78
22755;BME280;11544;42.020;23.094;2024-02-21T10:23:55;97796.31;;;14.15;49.79
22755;BME280;11544;42.020;23.094;2024-02-21T10:26:22;97793.66;;;14.37;47.64
22755;BME280;11544;42.020;23.094;2024-02-21T10:28:49;97778.97;;;14.53;48.22
22755;BME280;11544;42.020;23.094;2024-02-21T10:31:23;97781.56;;;14.96;48.23
22755;BME280;11544;42.020;23.094;2024-02-21T10:36:23;97770.34;;;15.11;46.62
22755;BME280;11544;42.020;23.094;2024-02-21T10:38:54;97768.75;;;15.28;44.91
22755;BME280;11544;42.020;23.094;2024-02-21T10:41:23;97759.41;;;15.01;44.60
22755;BME280;11544;42.020;23.094;2024-02-21T10:43:54;97762.97;;;14.59;44.76
22755;BME280;11544;42.020;23.094;2024-02-21T10:46:23;97759.13;;;14.89;44.22
22755;BME280;11544;42.020;23.094;2024-02-21T10:49:17;97754.34;;;15.17;43.42
22755;BME280;11544;42.020;23.094;2024-02-21T10:51:47;97760.00;;;14.47;45.46
22755;BME280;11544;42.020;23.094;2024-02-21T10:54:43;97753.94;;;14.87;44.59
22755;BME280;11544;42.020;23.094;2024-02-21T10:57:13;97738.88;;;14.72;44.02
22755;BME280;11544;42.020;23.094;2024-02-21T10:59:40;97742.88;;;14.60;46.00
22755;BME280;11544;42.020;23.094;2024-02-21T11:02:09;97739.56;;;14.12;47.43
22755;BME280;11544;42.020;23.094;2024-02-21T11:04:37;97733.75;;;14.26;46.12
22755;BME280;11544;42.020;23.094;2024-02-21T11:07:05;97734.97;;;14.80;46.73
22755;BME280;11544;42.020;23.094;2024-02-21T11:09:37;97725.41;;;14.59;44.85
22755;BME280;11544;42.020;23.094;2024-02-21T11:12:05;97721.69;;;14.02;44.74
22755;BME280;11544;42.020;23.094;2024-02-21T11:14:33;97728.72;;;14.22;46.21
22755;BME280;11544;42.020;23.094;2024-02-21T11:17:19;97714.06;;;14.58;45.40
22755;BME280;11544;42.020;23.094;2024-02-21T11:19:48;97717.34;;;15.03;44.42
22755;BME280;11544;42.020;23.094;2024-02-21T11:22:17;97711.69;;;14.32;43.22
22755;BME280;11544;42.020;23.094;2024-02-21T11:24:44;97724.88;;;14.71;42.96
22755;BME280;11544;42.020;23.094;2024-02-21T11:27:15;97711.03;;;14.88;44.33
22755;BME280;11544;42.020;23.094;2024-02-21T11:29:47;97713.88;;;14.63;44.59
22755;BME280;11544;42.020;23.094;2024-02-21T11:32:15;97705.91;;;14.24;42.85
22755;BME280;11544;42.020;23.094;2024-02-21T11:35:02;97703.16;;;14.47;43.02
22755;BME280;11544;42.020;23.094;2024-02-21T11:37:35;97696.53;;;14.18;43.90
22755;BME280;11544;42.020;23.094;2024-02-21T11:40:06;97696.00;;;15.11;43.74
22755;BME280;11544;42.020;23.094;2024-02-21T11:42:38;97697.34;;;14.61;43.26
22755;BME280;11544;42.020;23.094;2024-02-21T11:45:06;97689.09;;;15.27;43.80
22755;BME280;11544;42.020;23.094;2024-02-21T11:47:35;97692.06;;;14.00;45.30
22755;BME280;11544;42.020;23.094;2024-02-21T11:50:09;97693.66;;;14.65;45.27
22755;BME280;11544;42.020;23.094;2024-02-21T11:52:38;97695.66;;;13.97;46.56
22755;BME280;11544;42.020;23.094;2024-02-21T11:55:05;97695.88;;;13.70;47.50
22755;BME280;11544;42.020;23.094;2024-02-21T11:57:37;97692.88;;;13.58;47.77
22755;BME280;11544;42.020;23.094;2024-02-21T12:00:18;97688.31;;;13.41;47.60
22755;BME280;11544;42.020;23.094;2024-02-21T12:02:49;97680.06;;;13.51;46.42
22755;BME280;11544;42.020;23.094;2024-02-21T12:05:18;97678.19;;;13.08;46.91
22755;BME280;11544;42.020;23.094;2024-02-21T12:07:46;97670.69;;;12.75;47.06
22755;BME280;11544;42.020;23.094;2024-02-21T12:10:13;97667.03;;;12.81;45.90
22755;BME280;11544;42.020;23.094;2024-02-21T12:12:40;97666.25;;;12.54;46.82
22755;BME280;11544;42.020;23.094;2024-02-21T12:15:08;97659.88;;;12.84;47.56
22755;BME280;11544;42.020;23.094;2024-02-21T12:17:39;97653.44;;;13.17;46.11
22755;BME280;11544;42.020;23.094;2024-02-21T12:20:07;97645.72;;;13.80;44.18
22755;BME280;11544;42.020;23.094;2024-02-21T12:22:39;97644.00;;;14.19;42.98
22755;BME280;11544;42.020;23.094;2024-02-21T12:25:21;97634.78;;;13.90;41.73
22755;BME280;11544;42.020;23.094;2024-02-21T12:27:49;97631.03;;;13.75;43.22
22755;BME280;11544;42.020;23.094;2024-02-21T12:30:16;97633.63;;;13.33;44.25
22755;BME280;11544;42.020;23.094;2024-02-21T12:32:43;97632.56;;;13.15;45.51
22755;BME280;11544;42.020;23.094;2024-02-21T12:35:11;97635.31;;;13.34;46.01
22755;BME280;11544;42.020;23.094;2024-02-21T12:37:38;97631.88;;;13.10;46.99
22755;BME280;11544;42.020;23.094;2024-02-21T12:40:06;97625.22;;;13.01;46.76
22755;BME280;11544;42.020;23.094;2024-02-21T12:42:34;97633.69;;;13.08;46.87
22755;BME280;11544;42.020;23.094;2024-02-21T12:45:02;97624.00;;;13.33;45.70
22755;BME280;11544;42.020;23.094;2024-02-21T12:47:30;97620.88;;;13.02;46.39
22755;BME280;11544;42.020;23.094;2024-02-21T12:49:57;97627.53;;;12.87;46.10
22755;BME280;11544;42.020;23.094;2024-02-21T12:52:24;97622.13;;;12.91;46.07
22755;BME280;11544;42.020;23.094;2024-02-21T12:54:51;97631.41;;;12.77;45.70
22755;BME280;11544;42.020;23.094;2024-02-21T12:57:18;97619.25;;;12.76;46.32
22755;BME280;11544;42.020;23.094;2024-02-21T12:59:45;97614.34;;;13.12;45.01
22755;BME280;11544;42.020;23.094;2024-02-21T13:02:12;97615.91;;;13.82;43.74
22755;BME280;11544;42.020;23.094;2024-02-21T13:04:39;97611.75;;;14.58;40.65
22755;BME280;11544;42.020;23.094;2024-02-21T13:07:08;97604.94;;;14.54;40.60